Terminal Aerodrome Forecast
Issued by NWS

Home | Current Version | Previous Version | Text Only | Print | Product List | Glossary On
Versions: 1 2 3 4 5 6 7 8 9 10 11 12 13 14 15 16 17 18 19 20 21
000
FTUS43 KIND 041100
TAFHUF
TAF
KHUF 041122Z 0412/0512 33008KT P6SM BKN020 OVC080
      TEMPO 0412/0413 SCT020 OVC080
     FM041900 33011KT P6SM BKN025 OVC050
      TEMPO 0419/0423 2SM -SN
     FM050100 34011KT P6SM SCT025 OVC080=

USA.gov is the U.S. government's official web portal to all federal, state and local government web resources and services.